Time;durP1;ratioP1;P1;durP2;ratioP2;P2;SDS_P1;SDS_P2;PMS_P1;PMS_P2;Temp;Humidity;BMP_temperature;BMP_pressure;BME280_temperature;BME280_humidity;BME280_pressure;Samples;Min_cycle;Max_cycle;Signal;HPM_P1;HPM_P2
2023/08/16 00:02:05;;;;;;;13.05;3.80;;;;;;;;;;6128309;23;20022;-42
2023/08/16 00:04:32;;;;;;;7.73;2.73;;;;;;;;;;6117585;23;20013;-44
2023/08/16 00:07:00;;;;;;;8.82;2.55;;;;;;;;;;6127222;23;20013;-42
2023/08/16 00:09:30;;;;;;;7.55;3.00;;;;;;;;;;6117725;23;20020;-42
2023/08/16 00:11:58;;;;;;;8.40;2.80;;;;;;;;;;6122690;23;20014;-43
2023/08/16 00:14:26;;;;;;;10.50;2.88;;;;;;;;;;6118149;23;20053;-43
2023/08/16 00:16:54;;;;;;;13.20;3.63;;;;;;;;;;6129567;23;20017;-42
2023/08/16 00:19:21;;;;;;;7.90;3.33;;;;;;;;;;6120483;23;20049;-43
2023/08/16 00:21:49;;;;;;;10.60;3.40;;;;;;;;;;6128705;23;20024;-43
2023/08/16 00:24:16;;;;;;;9.07;3.47;;;;;;;;;;6123865;23;20017;-43
2023/08/16 00:26:45;;;;;;;7.45;3.25;;;;;;;;;;6129802;23;20064;-42
2023/08/16 00:29:13;;;;;;;10.83;3.53;;;;;;;;;;6121145;23;20017;-44
2023/08/16 00:31:41;;;;;;;8.63;3.20;;;;;;;;;;6122765;23;20028;-43
2023/08/16 00:34:08;;;;;;;11.27;3.22;;;;;;;;;;6132221;23;20437;-43
2023/08/16 00:36:36;;;;;;;9.32;3.00;;;;;;;;;;6119036;23;20017;-43
2023/08/16 00:39:04;;;;;;;10.18;3.13;;;;;;;;;;6131282;23;20044;-42
2023/08/16 00:41:32;;;;;;;10.67;3.00;;;;;;;;;;6123364;23;20023;-44
2023/08/16 00:44:01;;;;;;;7.63;3.40;;;;;;;;;;6119469;23;20377;-44
2023/08/16 00:46:30;;;;;;;7.97;3.55;;;;;;;;;;6130436;23;20022;-44
2023/08/16 00:48:58;;;;;;;7.15;2.80;;;;;;;;;;6118558;23;20482;-44
2023/08/16 00:51:26;;;;;;;7.25;2.90;;;;;;;;;;6129014;23;20017;-43
2023/08/16 00:53:54;;;;;;;6.27;2.87;;;;;;;;;;6124934;23;20013;-42
2023/08/16 00:56:22;;;;;;;7.03;2.35;;;;;;;;;;6128374;23;20013;-42
2023/08/16 00:58:49;;;;;;;5.85;2.70;;;;;;;;;;6121578;23;20072;-43
2023/08/16 01:01:18;;;;;;;6.28;2.55;;;;;;;;;;6121752;23;20033;-43
2023/08/16 01:03:47;;;;;;;7.15;2.17;;;;;;;;;;6126420;23;20092;-43
2023/08/16 01:06:15;;;;;;;6.47;2.47;;;;;;;;;;6118861;23;20429;-43
2023/08/16 01:08:42;;;;;;;8.57;2.80;;;;;;;;;;6129934;23;20092;-42
2023/08/16 01:11:13;;;;;;;7.35;2.58;;;;;;;;;;6120038;23;20017;-43
2023/08/16 01:13:44;;;;;;;7.43;2.80;;;;;;;;;;6126177;23;20041;-42
2023/08/16 01:16:16;;;;;;;8.18;2.92;;;;;;;;;;6122541;23;20500;-42
2023/08/16 01:18:45;;;;;;;8.00;2.90;;;;;;;;;;6119584;23;20028;-43
2023/08/16 01:21:14;;;;;;;8.20;2.80;;;;;;;;;;6121486;23;20045;-43
2023/08/16 01:23:44;;;;;;;6.78;2.65;;;;;;;;;;6103789;23;20527;-43
2023/08/16 01:26:16;;;;;;;6.65;2.97;;;;;;;;;;6130038;23;20029;-42
2023/08/16 01:28:45;;;;;;;6.13;2.80;;;;;;;;;;6118732;23;20037;-43
2023/08/16 01:31:13;;;;;;;7.63;3.30;;;;;;;;;;6130223;23;20448;-43
2023/08/16 01:33:41;;;;;;;9.75;3.10;;;;;;;;;;6122381;23;20022;-42
2023/08/16 01:36:08;;;;;;;8.52;2.92;;;;;;;;;;6131204;23;20017;-43
2023/08/16 01:38:36;;;;;;;7.82;2.40;;;;;;;;;;6120340;23;20019;-41
2023/08/16 01:41:09;;;;;;;6.95;2.30;;;;;;;;;;6108654;23;20021;-42
2023/08/16 01:43:37;;;;;;;6.50;2.50;;;;;;;;;;6117394;23;20018;-42
2023/08/16 01:46:07;;;;;;;7.85;2.60;;;;;;;;;;6149817;23;20024;-42
2023/08/16 01:48:37;;;;;;;7.50;2.50;;;;;;;;;;6116217;23;20502;-43
2023/08/16 01:51:09;;;;;;;7.45;2.72;;;;;;;;;;6130875;23;20408;-42
2023/08/16 01:53:37;;;;;;;7.35;2.63;;;;;;;;;;6132879;23;20013;-42
2023/08/16 01:56:05;;;;;;;7.60;2.73;;;;;;;;;;6121110;23;20466;-44
2023/08/16 01:58:32;;;;;;;7.75;3.03;;;;;;;;;;6129865;23;20018;-43
2023/08/16 02:01:00;;;;;;;9.07;2.83;;;;;;;;;;6130254;23;20030;-44
2023/08/16 02:03:31;;;;;;;6.45;2.60;;;;;;;;;;6124764;23;20130;-42
2023/08/16 02:05:59;;;;;;;9.65;2.58;;;;;;;;;;6137020;23;20022;-43
2023/08/16 02:08:31;;;;;;;5.97;2.37;;;;;;;;;;6129930;23;20542;-42
2023/08/16 02:10:59;;;;;;;6.25;2.15;;;;;;;;;;6128232;23;20021;-42
2023/08/16 02:13:26;;;;;;;5.38;2.20;;;;;;;;;;6141818;23;20306;-42
2023/08/16 02:15:59;;;;;;;6.60;2.53;;;;;;;;;;6130923;23;20013;-42
2023/08/16 02:18:45;;;;;;;7.97;2.30;;;;;;;;;;6121254;23;20452;-41
2023/08/16 02:21:13;;;;;;;6.10;2.30;;;;;;;;;;6132778;23;20022;-42
2023/08/16 02:23:40;;;;;;;6.63;1.80;;;;;;;;;;6111884;23;20013;-42
2023/08/16 02:26:08;;;;;;;5.82;1.70;;;;;;;;;;6089634;23;20021;-44
2023/08/16 02:28:36;;;;;;;6.10;1.70;;;;;;;;;;6126080;23;20459;-43
2023/08/16 02:31:04;;;;;;;6.25;1.80;;;;;;;;;;6125658;23;20022;-42
2023/08/16 02:33:32;;;;;;;6.40;1.70;;;;;;;;;;6134258;23;20017;-42
2023/08/16 02:36:01;;;;;;;5.43;1.50;;;;;;;;;;6127558;23;20017;-42
2023/08/16 02:38:29;;;;;;;7.05;1.63;;;;;;;;;;6130375;23;20072;-42
2023/08/16 02:40:56;;;;;;;6.97;1.70;;;;;;;;;;6145896;23;20252;-45
2023/08/16 02:43:24;;;;;;;7.45;1.77;;;;;;;;;;6105654;23;20048;-42
2023/08/16 02:45:52;;;;;;;5.40;2.00;;;;;;;;;;6126547;23;20376;-42
2023/08/16 02:48:20;;;;;;;5.20;1.98;;;;;;;;;;6134168;23;20515;-43
2023/08/16 02:50:49;;;;;;;7.10;2.35;;;;;;;;;;6126263;23;20018;-42
2023/08/16 02:53:20;;;;;;;7.80;2.53;;;;;;;;;;6133440;23;20028;-43
2023/08/16 02:55:48;;;;;;;5.68;2.05;;;;;;;;;;6134220;23;20746;-42
2023/08/16 02:58:15;;;;;;;5.73;2.23;;;;;;;;;;6125867;23;20021;-43
2023/08/16 03:00:43;;;;;;;10.32;2.80;;;;;;;;;;6135092;23;20024;-43
2023/08/16 03:03:11;;;;;;;7.38;2.22;;;;;;;;;;6118070;23;20440;-44
2023/08/16 03:05:39;;;;;;;6.13;2.30;;;;;;;;;;6134216;23;20024;-42
2023/08/16 03:08:06;;;;;;;6.03;2.38;;;;;;;;;;6121301;23;20029;-43
2023/08/16 03:10:35;;;;;;;7.37;2.23;;;;;;;;;;6132587;23;20021;-44
2023/08/16 03:13:03;;;;;;;6.97;2.10;;;;;;;;;;6127431;23;20411;-44
2023/08/16 03:15:31;;;;;;;7.13;1.80;;;;;;;;;;6131622;23;20024;-42
2023/08/16 03:17:58;;;;;;;5.50;2.13;;;;;;;;;;6122925;23;20017;-42
2023/08/16 03:20:27;;;;;;;6.65;2.00;;;;;;;;;;6134891;23;20021;-44
2023/08/16 03:22:56;;;;;;;4.73;2.00;;;;;;;;;;6136036;23;20138;-42
2023/08/16 03:25:24;;;;;;;7.63;1.90;;;;;;;;;;6127195;23;20052;-42
2023/08/16 03:27:53;;;;;;;7.75;1.30;;;;;;;;;;6133365;23;20013;-42
2023/08/16 03:30:21;;;;;;;6.30;1.23;;;;;;;;;;6123622;23;20017;-42
2023/08/16 03:32:48;;;;;;;5.05;1.40;;;;;;;;;;6131447;23;20025;-42
2023/08/16 03:35:16;;;;;;;8.73;1.83;;;;;;;;;;6129515;23;20659;-42
2023/08/16 03:37:44;;;;;;;5.35;1.48;;;;;;;;;;6128012;23;20349;-42
2023/08/16 03:40:12;;;;;;;6.00;1.65;;;;;;;;;;6126694;23;20013;-42
2023/08/16 03:42:39;;;;;;;6.03;1.70;;;;;;;;;;6132337;23;20273;-44
2023/08/16 03:45:09;;;;;;;4.32;1.40;;;;;;;;;;6130582;23;20017;-42
2023/08/16 03:47:37;;;;;;;5.10;1.40;;;;;;;;;;6128330;23;20068;-42
2023/08/16 03:50:05;;;;;;;5.30;1.48;;;;;;;;;;6128346;23;20025;-43
2023/08/16 03:52:33;;;;;;;5.38;1.83;;;;;;;;;;6132716;23;20013;-44
2023/08/16 03:55:00;;;;;;;4.55;1.50;;;;;;;;;;6137530;23;20024;-44
2023/08/16 03:57:29;;;;;;;4.65;1.42;;;;;;;;;;6144807;23;20013;-42
2023/08/16 03:59:56;;;;;;;7.20;1.50;;;;;;;;;;6137575;23;20018;-42
2023/08/16 04:02:25;;;;;;;5.20;1.23;;;;;;;;;;6123231;23;21000;-42
2023/08/16 04:04:53;;;;;;;5.38;1.75;;;;;;;;;;6133343;23;20020;-45
2023/08/16 04:07:21;;;;;;;6.03;1.85;;;;;;;;;;6118291;23;20017;-42
2023/08/16 04:09:49;;;;;;;5.43;1.60;;;;;;;;;;6135498;23;20041;-42
2023/08/16 04:12:17;;;;;;;5.80;1.50;;;;;;;;;;6124907;23;20021;-42
2023/08/16 04:14:44;;;;;;;4.45;1.40;;;;;;;;;;6133032;23;20441;-44
2023/08/16 04:17:12;;;;;;;5.30;1.25;;;;;;;;;;6122439;23;20013;-42
2023/08/16 04:19:41;;;;;;;5.97;1.50;;;;;;;;;;6131571;23;20428;-44
2023/08/16 04:22:08;;;;;;;5.13;1.77;;;;;;;;;;6123345;23;20020;-42
2023/08/16 04:24:40;;;;;;;5.97;1.83;;;;;;;;;;6136066;23;20356;-43
2023/08/16 04:27:08;;;;;;;5.93;1.75;;;;;;;;;;6136710;23;20040;-42
2023/08/16 04:29:35;;;;;;;4.93;1.25;;;;;;;;;;6127351;23;20021;-42
2023/08/16 04:32:03;;;;;;;4.68;1.27;;;;;;;;;;6157255;23;20448;-42
2023/08/16 04:34:30;;;;;;;5.18;1.58;;;;;;;;;;6129097;23;20017;-43
2023/08/16 04:36:59;;;;;;;5.47;2.00;;;;;;;;;;6137292;23;20020;-42
2023/08/16 04:39:27;;;;;;;5.00;1.40;;;;;;;;;;6124970;23;20745;-42
2023/08/16 04:41:55;;;;;;;5.10;1.65;;;;;;;;;;6128757;23;20021;-43
2023/08/16 04:44:22;;;;;;;6.05;1.40;;;;;;;;;;6124965;23;20017;-42
2023/08/16 04:46:50;;;;;;;5.82;1.88;;;;;;;;;;6130965;23;20013;-42
2023/08/16 04:49:18;;;;;;;6.70;2.10;;;;;;;;;;6117980;23;20029;-43
2023/08/16 04:51:46;;;;;;;7.78;2.20;;;;;;;;;;6120838;23;20406;-42
2023/08/16 04:54:15;;;;;;;4.95;1.80;;;;;;;;;;6129064;23;20288;-42
2023/08/16 04:56:42;;;;;;;5.18;1.88;;;;;;;;;;6113777;23;20092;-43
2023/08/16 04:59:10;;;;;;;6.85;2.38;;;;;;;;;;6130501;23;20025;-42
2023/08/16 05:01:37;;;;;;;5.40;2.07;;;;;;;;;;6119321;23;20038;-43
2023/08/16 05:04:08;;;;;;;5.53;1.80;;;;;;;;;;6130869;23;20110;-43
2023/08/16 05:06:36;;;;;;;7.05;2.40;;;;;;;;;;6119823;23;20072;-43
2023/08/16 05:09:05;;;;;;;6.30;1.90;;;;;;;;;;6128527;23;20017;-42
2023/08/16 05:11:37;;;;;;;7.55;2.08;;;;;;;;;;6118338;23;20027;-43
2023/08/16 05:14:06;;;;;;;6.43;2.30;;;;;;;;;;6127090;23;20032;-42
2023/08/16 05:16:34;;;;;;;6.35;2.10;;;;;;;;;;6128566;23;20355;-43
2023/08/16 05:19:01;;;;;;;5.80;2.38;;;;;;;;;;6117061;23;20022;-42
2023/08/16 05:21:29;;;;;;;6.35;1.90;;;;;;;;;;6127845;23;20071;-43
2023/08/16 05:23:57;;;;;;;8.70;2.50;;;;;;;;;;6120119;23;20483;-43
2023/08/16 05:26:24;;;;;;;7.97;1.67;;;;;;;;;;6129085;23;20029;-42
2023/08/16 05:28:53;;;;;;;6.25;2.20;;;;;;;;;;6142502;23;20044;-43
2023/08/16 05:31:22;;;;;;;6.80;1.73;;;;;;;;;;6126848;23;20025;-42
2023/08/16 05:33:49;;;;;;;5.72;1.58;;;;;;;;;;6121600;23;20033;-42
2023/08/16 05:36:17;;;;;;;5.82;1.77;;;;;;;;;;6127216;23;20033;-42
2023/08/16 05:38:45;;;;;;;6.97;2.00;;;;;;;;;;6126664;23;20385;-41
2023/08/16 05:41:12;;;;;;;6.80;2.15;;;;;;;;;;6128214;23;20036;-42
2023/08/16 05:43:40;;;;;;;5.20;1.65;;;;;;;;;;6121731;23;20040;-42
2023/08/16 05:46:09;;;;;;;7.75;2.00;;;;;;;;;;6128945;23;20439;-41
2023/08/16 05:48:37;;;;;;;4.70;1.60;;;;;;;;;;6117841;23;20017;-43
2023/08/16 05:51:04;;;;;;;5.33;1.67;;;;;;;;;;6133561;23;20022;-43
2023/08/16 05:53:32;;;;;;;5.47;1.60;;;;;;;;;;6119441;23;20014;-43
2023/08/16 05:56:00;;;;;;;7.88;2.38;;;;;;;;;;6126581;23;20711;-44
2023/08/16 05:58:28;;;;;;;5.72;2.38;;;;;;;;;;6126606;23;20018;-44
2023/08/16 06:00:56;;;;;;;5.68;2.13;;;;;;;;;;6123412;23;20497;-43
2023/08/16 06:03:25;;;;;;;6.87;1.97;;;;;;;;;;6124536;23;20094;-42
2023/08/16 06:05:53;;;;;;;7.18;2.05;;;;;;;;;;6114373;23;20049;-42
2023/08/16 06:08:20;;;;;;;7.05;2.53;;;;;;;;;;6130098;23;20018;-42
2023/08/16 06:10:49;;;;;;;6.85;2.50;;;;;;;;;;6124880;23;20358;-43
2023/08/16 06:13:17;;;;;;;6.82;2.75;;;;;;;;;;6131920;23;20041;-42
2023/08/16 06:15:44;;;;;;;8.33;2.70;;;;;;;;;;6120139;23;20017;-42
2023/08/16 06:18:13;;;;;;;10.20;3.30;;;;;;;;;;6129951;23;20017;-42
2023/08/16 06:20:42;;;;;;;7.03;3.20;;;;;;;;;;6127909;23;20017;-42
2023/08/16 06:23:12;;;;;;;7.13;2.92;;;;;;;;;;6122224;23;20021;-42
2023/08/16 06:25:39;;;;;;;10.77;3.50;;;;;;;;;;6126601;23;20017;-45
2023/08/16 06:28:07;;;;;;;7.67;3.50;;;;;;;;;;6125741;23;20026;-42
2023/08/16 06:30:34;;;;;;;8.18;3.50;;;;;;;;;;6121670;23;20013;-44
2023/08/16 06:33:02;;;;;;;9.20;3.90;;;;;;;;;;6129207;23;20021;-43
2023/08/16 06:35:33;;;;;;;10.02;3.90;;;;;;;;;;6130000;23;20169;-44
2023/08/16 06:38:02;;;;;;;9.63;4.40;;;;;;;;;;6131317;23;20400;-42
2023/08/16 06:40:32;;;;;;;9.20;4.07;;;;;;;;;;6117182;23;20465;-42
2023/08/16 06:43:01;;;;;;;11.00;3.85;;;;;;;;;;6125782;23;20044;-44
2023/08/16 06:45:32;;;;;;;10.73;4.25;;;;;;;;;;6120223;23;20021;-42
2023/08/16 06:48:03;;;;;;;8.45;4.22;;;;;;;;;;6130053;23;20017;-43
2023/08/16 06:50:31;;;;;;;11.00;3.90;;;;;;;;;;6125544;23;20029;-44
2023/08/16 06:52:59;;;;;;;11.27;3.83;;;;;;;;;;6128199;23;20017;-42
2023/08/16 06:55:29;;;;;;;9.05;4.25;;;;;;;;;;6130722;23;20014;-42
2023/08/16 06:57:57;;;;;;;9.00;3.80;;;;;;;;;;6116256;23;20017;-42
2023/08/16 07:00:25;;;;;;;10.15;4.40;;;;;;;;;;6133310;23;20065;-43
2023/08/16 07:02:53;;;;;;;9.07;3.75;;;;;;;;;;6145937;23;20021;-43
2023/08/16 07:05:25;;;;;;;11.57;3.63;;;;;;;;;;6121889;23;20014;-43
2023/08/16 07:07:53;;;;;;;9.68;3.80;;;;;;;;;;6129273;23;20254;-42
2023/08/16 07:10:22;;;;;;;8.60;3.90;;;;;;;;;;6122187;23;20045;-43
2023/08/16 07:12:51;;;;;;;7.78;3.38;;;;;;;;;;6129369;23;20026;-43
2023/08/16 07:15:19;;;;;;;8.00;3.53;;;;;;;;;;6133284;23;20035;-44
2023/08/16 07:17:46;;;;;;;7.80;3.00;;;;;;;;;;6125554;23;20018;-42
2023/08/16 07:20:14;;;;;;;8.45;3.45;;;;;;;;;;6149153;23;20025;-44
2023/08/16 07:22:42;;;;;;;9.30;3.65;;;;;;;;;;6115882;23;20017;-42
2023/08/16 07:25:11;;;;;;;7.68;3.22;;;;;;;;;;6129802;23;20032;-42
2023/08/16 07:27:39;;;;;;;7.18;3.50;;;;;;;;;;6126778;23;20041;-46
2023/08/16 07:30:12;;;;;;;10.93;3.20;;;;;;;;;;6129408;23;20021;-44
2023/08/16 07:32:40;;;;;;;6.32;2.90;;;;;;;;;;6129072;23;20326;-46
2023/08/16 07:35:08;;;;;;;7.75;3.13;;;;;;;;;;6128150;23;20029;-44
2023/08/16 07:37:36;;;;;;;7.53;2.70;;;;;;;;;;6123621;23;20017;-42
2023/08/16 07:40:04;;;;;;;7.95;3.20;;;;;;;;;;6129300;23;20044;-42
2023/08/16 07:42:32;;;;;;;6.90;2.47;;;;;;;;;;6121015;23;20017;-42
2023/08/16 07:45:02;;;;;;;8.38;2.65;;;;;;;;;;6131184;23;20018;-45
2023/08/16 07:47:32;;;;;;;8.52;2.78;;;;;;;;;;6144171;23;20448;-42
2023/08/16 07:50:00;;;;;;;6.25;1.83;;;;;;;;;;6127774;23;20063;-43
2023/08/16 07:52:30;;;;;;;5.15;2.00;;;;;;;;;;6129856;23;20444;-45
2023/08/16 07:54:58;;;;;;;6.27;1.77;;;;;;;;;;6131730;23;20014;-43
2023/08/16 07:57:43;;;;;;;6.72;1.80;;;;;;;;;;6123170;23;20022;-44
2023/08/16 08:00:31;;;;;;;5.20;1.73;;;;;;;;;;6123862;23;20025;-43
2023/08/16 08:03:00;;;;;;;5.45;1.67;;;;;;;;;;6132906;23;20071;-43
2023/08/16 08:05:30;;;;;;;6.97;1.88;;;;;;;;;;6117543;23;20048;-42
2023/08/16 08:08:00;;;;;;;6.10;1.70;;;;;;;;;;6122642;23;20053;-42
2023/08/16 08:10:29;;;;;;;5.65;1.70;;;;;;;;;;6121042;23;20043;-43
2023/08/16 08:12:57;;;;;;;4.25;1.55;;;;;;;;;;6128244;23;20527;-43
2023/08/16 08:15:24;;;;;;;6.35;1.67;;;;;;;;;;6114173;23;20304;-42
2023/08/16 08:17:52;;;;;;;5.43;1.80;;;;;;;;;;6124941;23;20049;-44
2023/08/16 08:20:21;;;;;;;6.10;1.53;;;;;;;;;;6121562;23;20048;-47
2023/08/16 08:22:48;;;;;;;4.78;1.25;;;;;;;;;;6124167;23;20084;-42
2023/08/16 08:25:16;;;;;;;4.55;1.20;;;;;;;;;;6118177;23;20044;-42
2023/08/16 08:27:44;;;;;;;4.03;1.00;;;;;;;;;;6113443;23;20021;-44
2023/08/16 08:30:12;;;;;;;4.03;0.88;;;;;;;;;;6098367;23;20337;-43
2023/08/16 08:32:57;;;;;;;6.03;1.60;;;;;;;;;;6099455;23;20049;-43
2023/08/16 08:35:27;;;;;;;6.15;1.40;;;;;;;;;;6107209;23;20076;-44
2023/08/16 08:37:55;;;;;;;3.90;1.08;;;;;;;;;;6100987;23;20393;-48
2023/08/16 08:40:23;;;;;;;4.75;1.50;;;;;;;;;;6107672;23;20479;-44
2023/08/16 08:42:50;;;;;;;5.80;1.20;;;;;;;;;;6110583;23;20077;-43
2023/08/16 08:45:39;;;;;;;4.17;1.50;;;;;;;;;;6104045;23;20017;-43
2023/08/16 08:48:08;;;;;;;4.70;1.17;;;;;;;;;;6105096;23;20028;-43
2023/08/16 08:50:38;;;;;;;4.85;0.90;;;;;;;;;;6112882;23;20021;-43
2023/08/16 08:53:06;;;;;;;5.90;1.00;;;;;;;;;;6107204;23;20048;-43
2023/08/16 08:55:36;;;;;;;4.57;1.00;;;;;;;;;;6117578;23;20017;-44
2023/08/16 08:58:07;;;;;;;6.10;1.20;;;;;;;;;;6106656;23;20568;-43
2023/08/16 09:00:37;;;;;;;5.38;1.15;;;;;;;;;;6102738;23;20017;-43
2023/08/16 09:03:07;;;;;;;4.72;1.10;;;;;;;;;;6117090;23;20021;-42
2023/08/16 09:05:39;;;;;;;6.03;1.17;;;;;;;;;;6104002;23;20648;-42
2023/08/16 09:08:07;;;;;;;4.25;1.15;;;;;;;;;;6105273;23;20025;-43
2023/08/16 09:10:36;;;;;;;5.80;1.00;;;;;;;;;;6101632;23;20018;-44
2023/08/16 09:13:06;;;;;;;5.28;1.00;;;;;;;;;;6115829;23;20029;-47
2023/08/16 09:15:33;;;;;;;4.22;1.00;;;;;;;;;;6117994;23;20867;-42
2023/08/16 09:18:09;;;;;;;5.20;0.90;;;;;;;;;;6128057;23;20036;-44
2023/08/16 09:20:38;;;;;;;6.40;1.20;;;;;;;;;;6119109;23;20048;-43
2023/08/16 09:23:07;;;;;;;4.33;1.30;;;;;;;;;;6125012;23;20021;-43
2023/08/16 09:25:35;;;;;;;4.30;1.30;;;;;;;;;;6124318;23;20013;-43
2023/08/16 09:28:03;;;;;;;5.40;1.10;;;;;;;;;;6128298;23;20014;-43
2023/08/16 09:30:33;;;;;;;4.25;1.00;;;;;;;;;;6126951;23;20453;-45
2023/08/16 09:33:01;;;;;;;5.28;0.98;;;;;;;;;;6127513;23;20021;-43
2023/08/16 09:35:30;;;;;;;3.80;1.07;;;;;;;;;;6122120;23;20013;-43
2023/08/16 09:38:00;;;;;;;6.38;1.08;;;;;;;;;;6125103;23;20100;-44
2023/08/16 09:40:28;;;;;;;4.50;1.05;;;;;;;;;;6121052;23;20017;-43
2023/08/16 09:42:58;;;;;;;4.80;0.95;;;;;;;;;;6130281;23;20017;-42
2023/08/16 09:45:27;;;;;;;4.35;1.00;;;;;;;;;;6120588;23;20620;-43
2023/08/16 09:47:55;;;;;;;4.23;1.00;;;;;;;;;;6149572;23;20068;-43
2023/08/16 09:50:27;;;;;;;3.47;1.00;;;;;;;;;;6120781;23;20022;-43
2023/08/16 09:52:58;;;;;;;4.72;1.02;;;;;;;;;;6128066;23;20052;-47
2023/08/16 09:55:29;;;;;;;4.13;1.42;;;;;;;;;;6117654;23;20017;-44
2023/08/16 09:57:58;;;;;;;4.43;1.33;;;;;;;;;;6126751;23;20014;-43
2023/08/16 10:00:27;;;;;;;5.07;1.10;;;;;;;;;;6119924;23;20017;-43
2023/08/16 10:02:54;;;;;;;4.50;0.90;;;;;;;;;;6115913;23;20018;-43
2023/08/16 10:05:23;;;;;;;4.13;1.45;;;;;;;;;;6127780;23;20477;-44
2023/08/16 10:07:59;;;;;;;3.85;1.20;;;;;;;;;;6117409;23;20021;-43
2023/08/16 10:10:28;;;;;;;5.50;0.95;;;;;;;;;;6126540;23;20021;-44
2023/08/16 10:12:56;;;;;;;4.17;1.47;;;;;;;;;;6122845;23;20041;-43
2023/08/16 10:15:24;;;;;;;4.00;1.27;;;;;;;;;;6114542;23;20698;-42
2023/08/16 10:17:53;;;;;;;4.95;1.15;;;;;;;;;;6121954;23;20017;-46
2023/08/16 10:20:23;;;;;;;6.53;1.17;;;;;;;;;;6124089;23;20025;-43
2023/08/16 10:22:56;;;;;;;4.05;1.17;;;;;;;;;;6130570;23;20028;-42
2023/08/16 10:25:25;;;;;;;4.67;1.20;;;;;;;;;;6117789;23;20040;-43
2023/08/16 10:27:55;;;;;;;4.43;1.30;;;;;;;;;;6122856;23;20017;-45
2023/08/16 10:30:24;;;;;;;4.15;1.30;;;;;;;;;;6119173;23;20307;-44
2023/08/16 10:32:55;;;;;;;4.95;1.00;;;;;;;;;;6122225;23;20043;-44
2023/08/16 10:35:23;;;;;;;3.67;1.08;;;;;;;;;;6126752;23;20014;-44
2023/08/16 10:37:53;;;;;;;5.03;1.30;;;;;;;;;;6119589;23;20024;-43
2023/08/16 10:40:23;;;;;;;4.35;1.40;;;;;;;;;;6125162;23;20014;-46
2023/08/16 10:42:55;;;;;;;4.57;1.20;;;;;;;;;;6125903;23;20015;-46
2023/08/16 10:45:23;;;;;;;4.00;1.30;;;;;;;;;;6123470;23;20017;-43
2023/08/16 10:47:51;;;;;;;4.32;1.20;;;;;;;;;;6126521;23;20491;-43
2023/08/16 10:50:20;;;;;;;4.00;1.10;;;;;;;;;;6125462;23;20087;-46
2023/08/16 10:52:47;;;;;;;6.63;1.42;;;;;;;;;;6121609;23;20351;-44
2023/08/16 10:55:23;;;;;;;5.68;1.45;;;;;;;;;;6129771;23;20043;-43
2023/08/16 10:57:52;;;;;;;5.53;2.15;;;;;;;;;;6106453;23;20053;-47
2023/08/16 11:00:41;;;;;;;3.80;1.17;;;;;;;;;;6128510;23;20018;-47
2023/08/16 11:03:17;;;;;;;4.20;1.30;;;;;;;;;;6113164;23;20594;-44
2023/08/16 11:05:45;;;;;;;3.80;1.40;;;;;;;;;;6120457;23;20276;-44
2023/08/16 11:08:13;;;;;;;4.97;1.30;;;;;;;;;;6118945;23;20033;-46
2023/08/16 11:10:42;;;;;;;5.25;1.42;;;;;;;;;;6142934;23;20222;-44
2023/08/16 11:13:11;;;;;;;5.07;1.60;;;;;;;;;;6128329;23;20013;-45
2023/08/16 11:15:41;;;;;;;5.30;1.67;;;;;;;;;;6116099;23;20021;-44
2023/08/16 11:18:09;;;;;;;6.00;1.63;;;;;;;;;;6151452;23;20017;-42
2023/08/16 11:20:38;;;;;;;4.47;1.17;;;;;;;;;;6112537;23;20014;-42
2023/08/16 11:23:07;;;;;;;3.90;1.20;;;;;;;;;;6151056;23;20021;-42
2023/08/16 11:25:35;;;;;;;4.28;1.30;;;;;;;;;;6112038;23;20018;-42
2023/08/16 11:28:06;;;;;;;3.70;1.20;;;;;;;;;;6127771;23;20020;-44
2023/08/16 11:30:34;;;;;;;4.88;1.60;;;;;;;;;;6128579;23;20026;-45
2023/08/16 11:33:03;;;;;;;6.22;1.48;;;;;;;;;;6127451;23;20044;-43
2023/08/16 11:35:31;;;;;;;4.15;1.10;;;;;;;;;;6123306;23;20377;-43
2023/08/16 11:38:01;;;;;;;5.18;1.13;;;;;;;;;;6126663;23;20021;-43
2023/08/16 11:40:28;;;;;;;3.90;1.10;;;;;;;;;;6113641;23;20013;-42
2023/08/16 11:43:03;;;;;;;5.13;1.35;;;;;;;;;;6127987;23;20208;-42
2023/08/16 11:45:31;;;;;;;5.53;1.27;;;;;;;;;;6118575;23;20562;-44
2023/08/16 11:47:58;;;;;;;3.92;1.15;;;;;;;;;;6129239;23;20474;-44
2023/08/16 11:50:28;;;;;;;4.68;1.75;;;;;;;;;;6123627;23;20021;-44
2023/08/16 11:52:59;;;;;;;5.00;1.40;;;;;;;;;;6116416;23;20021;-43
2023/08/16 11:55:29;;;;;;;5.00;1.40;;;;;;;;;;6122254;23;20027;-43
2023/08/16 11:58:04;;;;;;;5.18;1.52;;;;;;;;;;6094717;23;20444;-44
2023/08/16 12:00:34;;;;;;;4.22;1.30;;;;;;;;;;6110491;23;20020;-43
2023/08/16 12:03:02;;;;;;;4.85;1.13;;;;;;;;;;6112932;23;20022;-44
2023/08/16 12:05:36;;;;;;;4.87;1.10;;;;;;;;;;6105995;23;20068;-43
2023/08/16 12:08:04;;;;;;;4.47;1.20;;;;;;;;;;6106937;23;20018;-43
2023/08/16 12:10:33;;;;;;;5.38;1.70;;;;;;;;;;6102888;23;20382;-45
2023/08/16 12:13:00;;;;;;;4.97;1.60;;;;;;;;;;6100404;23;20049;-43
2023/08/16 12:15:28;;;;;;;4.68;1.17;;;;;;;;;;6106075;23;20188;-43
2023/08/16 12:17:56;;;;;;;5.67;1.80;;;;;;;;;;6103059;23;20025;-43
2023/08/16 12:20:25;;;;;;;6.18;1.42;;;;;;;;;;6101287;23;20064;-43
2023/08/16 12:22:55;;;;;;;5.55;1.50;;;;;;;;;;6113174;23;20085;-43
2023/08/16 12:25:22;;;;;;;4.00;1.20;;;;;;;;;;6107426;23;20500;-43
2023/08/16 12:27:50;;;;;;;5.32;1.70;;;;;;;;;;6097962;23;20024;-43
2023/08/16 12:30:19;;;;;;;4.90;1.53;;;;;;;;;;6105429;23;20092;-43
2023/08/16 12:32:47;;;;;;;6.32;1.40;;;;;;;;;;6093446;23;20045;-45
2023/08/16 12:35:19;;;;;;;4.85;1.30;;;;;;;;;;6106952;23;20079;-43
2023/08/16 12:37:46;;;;;;;5.60;1.38;;;;;;;;;;6093549;23;20024;-44
2023/08/16 12:40:15;;;;;;;6.38;2.20;;;;;;;;;;6108273;23;20021;-44
2023/08/16 12:42:43;;;;;;;4.20;1.20;;;;;;;;;;6110381;23;20480;-44
2023/08/16 12:45:10;;;;;;;6.43;1.45;;;;;;;;;;6110968;23;20020;-43
2023/08/16 12:47:38;;;;;;;7.82;1.48;;;;;;;;;;6099599;23;20452;-43
2023/08/16 12:50:07;;;;;;;5.15;1.77;;;;;;;;;;6105343;23;20068;-43
2023/08/16 12:52:35;;;;;;;5.13;1.83;;;;;;;;;;6107830;23;20092;-42
2023/08/16 12:55:02;;;;;;;4.13;1.30;;;;;;;;;;6108711;23;20028;-42
2023/08/16 12:57:31;;;;;;;4.82;1.63;;;;;;;;;;6099400;23;20022;-42
2023/08/16 13:00:11;;;;;;;4.28;1.25;;;;;;;;;;6105948;23;20045;-43
2023/08/16 13:02:40;;;;;;;3.67;1.05;;;;;;;;;;6088563;23;20222;-42
2023/08/16 13:05:09;;;;;;;3.72;1.20;;;;;;;;;;6094421;23;20399;-42
2023/08/16 13:07:39;;;;;;;5.23;1.40;;;;;;;;;;6088447;23;20018;-46
2023/08/16 13:10:09;;;;;;;4.85;1.30;;;;;;;;;;6115426;23;20028;-43
2023/08/16 13:12:41;;;;;;;4.18;1.10;;;;;;;;;;6110495;23;20032;-47
2023/08/16 13:15:22;;;;;;;3.83;1.30;;;;;;;;;;6107892;23;20447;-43
2023/08/16 13:17:54;;;;;;;3.90;0.93;;;;;;;;;;6104896;23;20352;-44
2023/08/16 13:20:26;;;;;;;5.47;1.80;;;;;;;;;;6107441;23;20072;-43
2023/08/16 13:23:10;;;;;;;3.90;1.15;;;;;;;;;;6109164;23;20021;-44
2023/08/16 13:25:42;;;;;;;3.53;1.13;;;;;;;;;;6110302;23;20440;-42
2023/08/16 13:28:14;;;;;;;5.45;1.25;;;;;;;;;;6100007;23;20025;-45
2023/08/16 13:30:49;;;;;;;6.05;1.77;;;;;;;;;;6111053;23;20033;-43
2023/08/16 13:33:33;;;;;;;4.40;1.00;;;;;;;;;;6114878;23;20068;-42
2023/08/16 13:36:13;;;;;;;5.10;1.05;;;;;;;;;;6106058;23;20013;-44
2023/08/16 13:38:43;;;;;;;4.63;1.25;;;;;;;;;;6104622;23;20020;-44
2023/08/16 13:41:16;;;;;;;4.25;1.40;;;;;;;;;;6103913;23;20610;-44
2023/08/16 13:43:53;;;;;;;4.32;1.35;;;;;;;;;;6107373;23;20045;-43
2023/08/16 13:46:40;;;;;;;5.77;1.73;;;;;;;;;;6101151;23;20044;-47
2023/08/16 13:49:08;;;;;;;5.18;1.70;;;;;;;;;;6107950;23;20806;-46
2023/08/16 13:51:36;;;;;;;3.97;1.23;;;;;;;;;;6103576;23;20032;-43
2023/08/16 13:54:04;;;;;;;4.53;1.17;;;;;;;;;;6108899;23;20021;-44
2023/08/16 13:56:31;;;;;;;3.60;1.40;;;;;;;;;;6102348;23;20025;-45
2023/08/16 13:59:16;;;;;;;6.43;1.67;;;;;;;;;;6108485;23;20024;-43
2023/08/16 14:01:43;;;;;;;4.85;1.55;;;;;;;;;;6101772;23;20433;-46
2023/08/16 14:04:11;;;;;;;6.13;1.77;;;;;;;;;;6112444;23;20088;-47
2023/08/16 14:06:41;;;;;;;5.35;1.50;;;;;;;;;;6102595;23;20018;-46
2023/08/16 14:09:10;;;;;;;4.10;1.25;;;;;;;;;;6121619;23;20021;-42
2023/08/16 14:11:37;;;;;;;5.00;1.40;;;;;;;;;;6108515;23;20022;-43
2023/08/16 14:14:05;;;;;;;3.80;1.10;;;;;;;;;;6103170;23;20028;-45
2023/08/16 14:16:34;;;;;;;6.30;1.60;;;;;;;;;;6112118;23;20018;-43
2023/08/16 14:19:06;;;;;;;4.20;0.95;;;;;;;;;;6093738;23;20387;-43
2023/08/16 14:21:34;;;;;;;4.00;1.10;;;;;;;;;;6115155;23;20017;-44
2023/08/16 14:24:09;;;;;;;4.20;1.50;;;;;;;;;;6091871;23;20021;-43
2023/08/16 14:26:45;;;;;;;4.55;1.25;;;;;;;;;;6095923;23;20018;-47
2023/08/16 14:29:13;;;;;;;5.03;1.00;;;;;;;;;;6104966;23;20065;-45
2023/08/16 14:31:42;;;;;;;5.22;1.42;;;;;;;;;;6107447;23;20017;-45
2023/08/16 14:34:10;;;;;;;3.58;0.93;;;;;;;;;;6133996;23;20704;-46
2023/08/16 14:36:42;;;;;;;5.10;1.47;;;;;;;;;;6106219;23;20325;-46
2023/08/16 14:39:10;;;;;;;4.15;1.23;;;;;;;;;;6094109;23;20467;-43
2023/08/16 14:41:38;;;;;;;4.28;1.00;;;;;;;;;;6133963;23;20021;-43
2023/08/16 14:44:06;;;;;;;4.18;1.42;;;;;;;;;;6111635;23;20577;-45
2023/08/16 14:46:33;;;;;;;4.72;1.63;;;;;;;;;;6104332;23;20460;-44
2023/08/16 14:49:03;;;;;;;4.60;1.10;;;;;;;;;;6102595;23;20017;-43
2023/08/16 14:51:31;;;;;;;4.22;1.58;;;;;;;;;;6103714;23;20352;-45
2023/08/16 14:53:59;;;;;;;5.13;1.50;;;;;;;;;;6113831;23;20025;-43
2023/08/16 14:56:28;;;;;;;4.18;1.38;;;;;;;;;;6098861;23;20119;-46